Southwest Washington Regional Airport Kelso US
ICAO: KKLS
IATA: KLS
Category: Medium
Scheduled Services: No

Elevation: 20 ft
TransAlt. 18000 ft.

Airport Communications:
AWOS 3:135.075
SEATTLE CNTR:124.2
SEATTLE RDO:122.25
CTAF/UNICOM:122.8

KKLS Zoom In..

If you have problems with the map follow the link
https://www.worldairports.se/pages/airport.php?
ICAO=KKLS

Runways:

(A) RW 12 length 4391 ft width 100 ft
---- / hdg 123

(B) RW 30 length 4391 ft width 100 ft
---- / hdg 303

Location; KKLS
Day. 18 / Time. 23.56 Zulu
* Altimeter: 30.18
* Temperature: 17° c. 62.6°f.
* Wind from: 300° Speed 06 kn.
Dewpoint: 11° c.
Visibility: 10 Statute Miles.
Clouds: Clear (automated report).

KKLS 182356Z AUTO 30006KT 10SM CLR 17/11 A3018 RMK AO2 SLP226 T01720106 10183 20094 56002


Wind From 300°
Speed 06 kn.

 
 
jpsmedia.com for Web Design worldairports.se 2018   terms of use